createdAt,value
2022-11-06T00:02:42.023Z,5.04
2022-11-06T00:06:08.140Z,4.93
2022-11-06T00:09:22.108Z,4.66
2022-11-06T00:12:30.312Z,4.57
2022-11-06T00:15:38.500Z,4.65
2022-11-06T00:18:47.186Z,4.68
2022-11-06T00:21:55.417Z,4.63
2022-11-06T00:25:07.140Z,4.59
2022-11-06T00:28:15.664Z,4.49
2022-11-06T00:31:27.478Z,4.47
2022-11-06T00:34:36.183Z,4.39
2022-11-06T00:37:44.686Z,4.30
2022-11-06T00:40:54.301Z,4.46
2022-11-06T00:44:04.228Z,4.43
2022-11-06T00:47:12.980Z,4.26
2022-11-06T00:50:21.236Z,4.16
2022-11-06T00:53:32.372Z,4.19
2022-11-06T00:56:42.952Z,4.26
2022-11-06T00:59:52.588Z,4.19
2022-11-06T01:03:04.068Z,4.10
2022-11-06T01:06:15.934Z,4.06
2022-11-06T01:09:27.165Z,4.01
2022-11-06T01:12:45.539Z,3.97
2022-11-06T01:15:54.157Z,4.16
2022-11-06T01:19:05.190Z,3.96
2022-11-06T01:22:15.842Z,3.99
2022-11-06T01:25:25.394Z,3.97
2022-11-06T01:28:36.895Z,3.90
2022-11-06T01:31:51.389Z,3.59
2022-11-06T01:34:59.631Z,3.53
2022-11-06T01:38:07.967Z,3.47
2022-11-06T01:41:20.108Z,3.38
2022-11-06T01:45:24.787Z,3.37
2022-11-06T01:48:34.319Z,3.36
2022-11-06T01:51:49.268Z,3.30
2022-11-06T01:55:07.837Z,3.24
2022-11-06T01:58:21.419Z,3.18
2022-11-06T02:01:31.228Z,3.27
2022-11-06T02:04:43.861Z,3.34
2022-11-06T02:07:53.497Z,3.51
2022-11-06T02:11:02.851Z,3.46
2022-11-06T02:14:21.018Z,3.21
2022-11-06T02:17:48.166Z,3.02
2022-11-06T02:21:27.374Z,2.89
2022-11-06T02:25:06.062Z,2.82
2022-11-06T02:28:25.967Z,2.82
2022-11-06T02:31:40.531Z,2.71
2022-11-06T02:34:52.889Z,2.69
2022-11-06T02:38:07.334Z,2.57
2022-11-06T02:41:23.085Z,2.53
2022-11-06T02:44:38.900Z,2.50
2022-11-06T02:47:54.402Z,2.50
2022-11-06T02:51:06.557Z,2.39
2022-11-06T02:54:19.599Z,2.41
2022-11-06T02:57:33.093Z,2.59
2022-11-06T03:00:48.971Z,2.71
2022-11-06T03:04:04.135Z,2.37
2022-11-06T03:07:19.661Z,2.17
2022-11-06T03:10:35.705Z,1.99
2022-11-06T03:13:55.660Z,2.00
2022-11-06T03:17:16.044Z,1.95
2022-11-06T03:20:36.581Z,1.88
2022-11-06T03:23:54.165Z,1.86
2022-11-06T03:27:08.563Z,1.84
2022-11-06T03:30:17.222Z,1.85
2022-11-06T03:33:37.274Z,1.92
2022-11-06T03:36:51.660Z,1.99
2022-11-06T03:40:10.577Z,2.12
2022-11-06T03:43:27.396Z,1.99
2022-11-06T03:46:41.358Z,1.92
2022-11-06T03:49:58.950Z,1.82
2022-11-06T03:53:14.521Z,1.74
2022-11-06T03:56:30.712Z,1.69
2022-11-06T04:04:58.545Z,1.58
2022-11-06T04:08:28.176Z,1.56
2022-11-06T04:11:57.636Z,1.44
2022-11-06T04:15:13.742Z,1.47
2022-11-06T04:18:22.263Z,1.49
2022-11-06T04:21:52.800Z,1.47
2022-11-06T04:25:38.073Z,1.49
2022-11-06T04:28:58.333Z,1.43
2022-11-06T04:32:18.388Z,1.40
2022-11-06T04:35:36.122Z,1.32
2022-11-06T04:39:00.346Z,1.52
2022-11-06T04:42:21.678Z,1.38
2022-11-06T04:45:36.115Z,1.29
2022-11-06T04:48:47.920Z,1.23
2022-11-06T04:51:57.861Z,1.19
2022-11-06T04:55:09.682Z,1.13
2022-11-06T04:58:17.937Z,1.07
2022-11-06T05:01:27.402Z,1.06
2022-11-06T05:04:35.951Z,1.05
2022-11-06T05:07:45.103Z,1.11
2022-11-06T05:10:54.918Z,1.02
2022-11-06T05:14:03.257Z,0.84
2022-11-06T05:17:11.888Z,0.93
2022-11-06T05:20:20.821Z,0.94
2022-11-06T05:23:28.014Z,0.95
2022-11-06T05:26:37.644Z,0.95
2022-11-06T05:29:49.278Z,0.90
2022-11-06T05:32:58.076Z,0.89
2022-11-06T05:36:07.995Z,0.94
2022-11-06T05:39:20.673Z,0.89
2022-11-06T05:42:30.664Z,0.96
2022-11-06T05:45:39.065Z,0.92
2022-11-06T05:48:47.266Z,0.90
2022-11-06T05:51:56.107Z,1.04
2022-11-06T05:55:05.408Z,1.08
2022-11-06T05:58:18.557Z,1.17
2022-11-06T06:01:27.660Z,1.23
2022-11-06T06:04:36.393Z,1.30
2022-11-06T06:07:47.471Z,1.31
2022-11-06T06:10:59.100Z,1.42
2022-11-06T06:14:08.851Z,1.40
2022-11-06T06:17:17.555Z,1.48
2022-11-06T06:20:25.941Z,1.39
2022-11-06T06:23:34.128Z,1.40
2022-11-06T06:26:42.573Z,1.38
2022-11-06T06:29:52.886Z,1.44
2022-11-06T06:33:06.729Z,1.50
2022-11-06T06:36:17.161Z,1.50
2022-11-06T06:39:25.409Z,1.52
2022-11-06T06:42:34.344Z,1.51
2022-11-06T06:45:44.122Z,1.74
2022-11-06T06:48:52.421Z,2.02
2022-11-06T06:52:00.606Z,2.23
2022-11-06T06:55:10.066Z,2.43
2022-11-06T06:58:18.424Z,2.64
2022-11-06T07:01:28.186Z,2.88
2022-11-06T07:04:36.473Z,3.09
2022-11-06T07:07:44.739Z,3.22
2022-11-06T07:10:53.139Z,3.37
2022-11-06T07:14:01.664Z,3.55
2022-11-06T07:17:11.283Z,3.73
2022-11-06T07:20:19.850Z,3.84
2022-11-06T07:23:28.031Z,4.07
2022-11-06T07:26:38.386Z,4.29
2022-11-06T07:29:46.891Z,4.59
2022-11-06T07:32:56.979Z,4.81
2022-11-06T07:36:07.232Z,4.79
2022-11-06T07:39:15.522Z,4.85
2022-11-06T07:42:23.723Z,4.85
2022-11-06T07:45:43.116Z,4.90
2022-11-06T07:48:55.708Z,4.98
2022-11-06T07:52:06.026Z,5.20
2022-11-06T07:55:14.234Z,5.32
2022-11-06T07:58:24.353Z,5.37
2022-11-06T08:01:33.013Z,5.46
2022-11-06T08:04:43.442Z,5.59
2022-11-06T08:07:57.764Z,5.68
2022-11-06T08:11:07.596Z,5.83
2022-11-06T08:18:01.418Z,6.06
2022-11-06T08:21:11.349Z,6.24
2022-11-06T08:24:22.168Z,6.29
2022-11-06T08:27:30.872Z,6.35
2022-11-06T08:30:39.235Z,6.47
2022-11-06T08:33:47.868Z,6.57
2022-11-06T08:36:57.716Z,6.67
2022-11-06T08:40:08.774Z,6.74
2022-11-06T08:43:18.974Z,6.67
2022-11-06T08:46:27.577Z,6.78
2022-11-06T08:49:35.938Z,6.77
2022-11-06T08:52:47.021Z,6.86
2022-11-06T08:55:55.850Z,6.95
2022-11-06T08:59:04.498Z,7.10
2022-11-06T09:02:15.318Z,7.10
2022-11-06T09:05:23.862Z,7.08
2022-11-06T09:08:34.786Z,7.16
2022-11-06T09:11:43.512Z,7.23
2022-11-06T09:14:52.438Z,7.28
2022-11-06T09:18:01.210Z,7.36
2022-11-06T09:21:12.113Z,7.51
2022-11-06T09:24:43.177Z,7.67
2022-11-06T09:27:58.885Z,7.76
2022-11-06T09:31:08.218Z,7.82
2022-11-06T09:34:16.617Z,7.92
2022-11-06T09:37:25.050Z,7.97
2022-11-06T09:40:39.284Z,8.00
2022-11-06T09:44:13.972Z,8.01
2022-11-06T09:47:33.086Z,8.07
2022-11-06T09:50:50.406Z,8.05
2022-11-06T09:54:07.274Z,8.18
2022-11-06T09:57:28.580Z,8.39
2022-11-06T10:00:37.295Z,8.64
2022-11-06T10:03:56.020Z,8.76
2022-11-06T10:07:05.467Z,8.96
2022-11-06T10:10:19.585Z,8.99
2022-11-06T10:13:57.149Z,9.00
2022-11-06T10:17:22.071Z,9.09
2022-11-06T10:20:35.968Z,9.19
2022-11-06T10:23:51.316Z,9.17
2022-11-06T10:26:59.946Z,9.18
2022-11-06T10:30:15.166Z,9.15
2022-11-06T10:33:41.994Z,8.97
2022-11-06T10:36:56.396Z,9.12
2022-11-06T10:40:13.319Z,9.27
2022-11-06T10:43:31.668Z,9.25
2022-11-06T10:46:49.669Z,9.29
2022-11-06T10:50:02.183Z,9.30
2022-11-06T10:53:26.313Z,9.18
2022-11-06T10:56:55.470Z,9.13
2022-11-06T11:00:07.017Z,8.96
2022-11-06T11:03:28.071Z,8.99
2022-11-06T11:06:42.358Z,8.94
2022-11-06T11:09:51.016Z,9.05
2022-11-06T11:13:06.915Z,9.06
2022-11-06T11:16:19.708Z,9.00
2022-11-06T11:19:38.218Z,8.91
2022-11-06T11:22:47.394Z,8.94
2022-11-06T11:26:13.373Z,8.95
2022-11-06T11:29:27.771Z,8.91
2022-11-06T11:32:36.094Z,8.98
2022-11-06T11:35:51.548Z,9.07
2022-11-06T11:39:01.028Z,9.17
2022-11-06T11:42:26.909Z,9.30
2022-11-06T11:45:35.292Z,9.38
2022-11-06T11:48:47.104Z,9.46
2022-11-06T11:51:59.762Z,9.56
2022-11-06T11:55:18.213Z,9.63
2022-11-06T11:58:30.741Z,9.77
2022-11-06T12:01:42.837Z,9.78
2022-11-06T12:04:56.401Z,9.65
2022-11-06T12:08:14.237Z,9.51
2022-11-06T12:11:27.466Z,9.52
2022-11-06T12:14:38.549Z,9.55
2022-11-06T12:17:54.259Z,9.52
2022-11-06T12:21:08.636Z,9.52
2022-11-06T12:24:24.624Z,9.50
2022-11-06T12:27:40.062Z,9.56
2022-11-06T12:30:58.052Z,9.64
2022-11-06T12:34:20.094Z,9.78
2022-11-06T12:37:43.257Z,9.99
2022-11-06T12:41:04.831Z,9.89
2022-11-06T12:44:17.240Z,9.97
2022-11-06T12:47:42.988Z,10.14
2022-11-06T12:51:00.708Z,10.18
2022-11-06T12:54:38.623Z,10.15
2022-11-06T12:58:08.511Z,10.03
2022-11-06T13:01:31.194Z,10.02
2022-11-06T13:04:55.385Z,9.96
2022-11-06T13:08:28.774Z,10.07
2022-11-06T13:11:48.786Z,10.12
2022-11-06T13:15:16.146Z,10.22
2022-11-06T13:18:32.302Z,10.13
2022-11-06T13:22:10.833Z,10.16
2022-11-06T13:25:28.885Z,10.23
2022-11-06T13:28:44.310Z,10.35
2022-11-06T13:32:00.540Z,10.48
2022-11-06T13:35:18.282Z,10.49
2022-11-06T13:38:33.840Z,10.24
2022-11-06T13:41:42.191Z,10.07
2022-11-06T13:44:53.172Z,10.04
2022-11-06T13:48:24.516Z,9.89
2022-11-06T13:51:48.644Z,9.83
2022-11-06T13:55:11.976Z,9.85
2022-11-06T13:58:49.543Z,9.81
2022-11-06T14:02:21.149Z,9.81
2022-11-06T14:06:05.447Z,9.80
2022-11-06T14:09:21.099Z,9.80
2022-11-06T14:12:30.450Z,9.78
2022-11-06T14:15:42.213Z,9.70
2022-11-06T14:18:58.265Z,9.63
2022-11-06T14:22:32.061Z,9.61
2022-11-06T14:25:59.137Z,9.53
2022-11-06T14:30:01.213Z,9.58
2022-11-06T14:33:33.708Z,9.54
2022-11-06T14:36:42.389Z,9.34
2022-11-06T14:40:15.075Z,9.26
2022-11-06T14:43:30.818Z,9.23
2022-11-06T14:46:39.606Z,9.26
2022-11-06T14:49:54.911Z,9.18
2022-11-06T14:53:17.475Z,9.03
2022-11-06T14:56:31.907Z,8.97
2022-11-06T14:59:43.452Z,8.88
2022-11-06T15:02:55.531Z,8.71
2022-11-06T15:06:22.314Z,8.70
2022-11-06T15:09:47.727Z,8.62
2022-11-06T15:13:13.413Z,8.35
2022-11-06T15:16:25.387Z,8.30
2022-11-06T15:19:42.589Z,8.14
2022-11-06T15:23:14.002Z,7.97
2022-11-06T15:26:31.290Z,7.82
2022-11-06T15:29:58.588Z,7.62
2022-11-06T15:33:17.004Z,7.59
2022-11-06T15:36:27.529Z,7.34
2022-11-06T15:39:42.911Z,7.25
2022-11-06T15:42:51.938Z,7.09
2022-11-06T15:46:19.360Z,6.93
2022-11-06T15:49:28.197Z,6.79
2022-11-06T15:52:36.896Z,6.66
2022-11-06T15:55:53.592Z,6.57
2022-11-06T15:59:12.934Z,6.45
2022-11-06T16:02:23.884Z,6.37
2022-11-06T16:05:37.591Z,6.27
2022-11-06T16:08:46.873Z,6.18
2022-11-06T16:11:57.056Z,6.10
2022-11-06T16:15:06.373Z,6.00
2022-11-06T16:18:23.739Z,5.98
2022-11-06T16:21:35.477Z,5.88
2022-11-06T16:24:50.132Z,5.78
2022-11-06T16:27:58.951Z,5.69
2022-11-06T16:31:14.608Z,5.66
2022-11-06T16:34:44.339Z,5.60
2022-11-06T16:37:53.146Z,5.52
2022-11-06T16:41:01.613Z,5.43
2022-11-06T16:44:30.884Z,5.41
2022-11-06T16:47:40.168Z,5.39
2022-11-06T16:50:53.362Z,5.37
2022-11-06T16:54:03.690Z,5.31
2022-11-06T16:57:17.788Z,5.28
2022-11-06T17:00:31.164Z,5.28
2022-11-06T17:03:48.108Z,5.20
2022-11-06T17:06:59.649Z,5.27
2022-11-06T17:10:41.437Z,5.26
2022-11-06T17:13:52.695Z,5.22
2022-11-06T17:17:03.358Z,5.19
2022-11-06T17:20:16.415Z,5.18
2022-11-06T17:23:29.299Z,5.20
2022-11-06T17:26:44.650Z,5.20
2022-11-06T17:29:53.254Z,5.13
2022-11-06T17:33:01.567Z,5.15
2022-11-06T17:36:18.610Z,5.18
2022-11-06T17:39:28.483Z,5.17
2022-11-06T17:42:37.846Z,5.24
2022-11-06T17:45:49.724Z,5.36
2022-11-06T17:48:58.597Z,5.36
2022-11-06T17:52:07.195Z,5.32
2022-11-06T17:55:17.148Z,5.34
2022-11-06T17:58:25.342Z,5.56
2022-11-06T18:01:33.989Z,5.57
2022-11-06T18:04:42.949Z,5.38
2022-11-06T18:07:51.438Z,5.49
2022-11-06T18:11:03.883Z,5.50
2022-11-06T18:14:13.315Z,5.50
2022-11-06T18:17:25.007Z,5.62
2022-11-06T18:20:33.330Z,5.67
2022-11-06T18:23:41.558Z,5.54
2022-11-06T18:26:51.560Z,5.56
2022-11-06T18:29:59.953Z,5.54
2022-11-06T18:33:08.239Z,5.54
2022-11-06T18:36:17.706Z,5.55
2022-11-06T18:39:25.970Z,5.73
2022-11-06T18:42:36.571Z,5.62
2022-11-06T18:45:44.813Z,5.50
2022-11-06T18:48:53.442Z,5.59
2022-11-06T18:52:01.640Z,5.62
2022-11-06T18:55:10.779Z,5.63
2022-11-06T18:58:21.501Z,5.63
2022-11-06T19:01:30.012Z,5.64
2022-11-06T19:04:38.445Z,5.61
2022-11-06T19:07:51.999Z,5.67
2022-11-06T19:11:04.865Z,5.69
2022-11-06T19:14:14.472Z,5.68
2022-11-06T19:17:22.957Z,5.71
2022-11-06T19:20:32.442Z,5.72
2022-11-06T19:23:45.697Z,5.74
2022-11-06T19:26:54.104Z,5.78
2022-11-06T19:30:04.026Z,5.78
2022-11-06T19:33:13.900Z,5.86
2022-11-06T19:36:23.082Z,5.87
2022-11-06T19:39:31.450Z,6.04
2022-11-06T19:42:40.296Z,6.01
2022-11-06T19:45:52.572Z,5.98
2022-11-06T19:49:01.023Z,6.04
2022-11-06T19:52:42.895Z,6.11
2022-11-06T19:55:40.235Z,6.17
2022-11-06T19:58:50.168Z,6.25
2022-11-06T20:02:00.054Z,6.40
2022-11-06T20:05:09.345Z,6.29
2022-11-06T20:08:17.676Z,6.33
2022-11-06T20:11:26.292Z,6.30
2022-11-06T20:14:34.933Z,6.28
2022-11-06T20:17:44.647Z,6.24
2022-11-06T20:20:53.184Z,6.29
2022-11-06T20:24:01.626Z,6.33
2022-11-06T20:27:13.934Z,6.36
2022-11-06T20:30:22.490Z,6.41
2022-11-06T20:33:32.178Z,6.46
2022-11-06T20:36:43.593Z,6.49
2022-11-06T20:39:54.210Z,6.55
2022-11-06T20:43:03.407Z,6.73
2022-11-06T20:46:14.583Z,6.63
2022-11-06T20:49:24.784Z,6.63
2022-11-06T20:52:34.069Z,6.67
2022-11-06T20:55:42.456Z,6.71
2022-11-06T20:58:54.064Z,6.74
2022-11-06T21:02:02.530Z,6.81
2022-11-06T21:05:14.867Z,7.02
2022-11-06T21:08:23.532Z,7.13
2022-11-06T21:11:32.079Z,7.18
2022-11-06T21:14:40.677Z,7.40
2022-11-06T21:17:49.294Z,7.34
2022-11-06T21:21:02.705Z,7.40
2022-11-06T21:24:11.696Z,7.42
2022-11-06T21:27:25.563Z,7.45
2022-11-06T21:30:34.317Z,7.45
2022-11-06T21:33:50.155Z,7.52
2022-11-06T21:37:02.831Z,7.58
2022-11-06T21:40:17.535Z,7.61
2022-11-06T21:43:25.928Z,7.74
2022-11-06T21:46:41.179Z,7.80
2022-11-06T21:49:54.844Z,7.81
2022-11-06T21:53:22.024Z,7.86
2022-11-06T21:56:30.753Z,7.82
2022-11-06T21:59:41.779Z,7.90
2022-11-06T22:02:51.193Z,8.00
2022-11-06T22:06:07.002Z,8.16
2022-11-06T22:09:21.977Z,8.47
2022-11-06T22:12:34.941Z,8.51
2022-11-06T22:15:43.644Z,8.67
2022-11-06T22:18:52.024Z,8.62
2022-11-06T22:22:00.289Z,8.64
2022-11-06T22:25:10.971Z,8.65
2022-11-06T22:28:19.197Z,8.68
2022-11-06T22:31:29.252Z,8.70
2022-11-06T22:34:37.423Z,8.66
2022-11-06T22:37:45.687Z,8.70
2022-11-06T22:40:57.347Z,8.77
2022-11-06T22:44:06.527Z,8.70
2022-11-06T22:47:15.035Z,8.68
2022-11-06T22:50:23.340Z,8.76
2022-11-06T22:53:34.117Z,8.73
2022-11-06T22:56:43.820Z,8.71
2022-11-06T22:59:52.142Z,8.70
2022-11-06T23:03:00.565Z,8.61
2022-11-06T23:06:11.006Z,8.53
2022-11-06T23:09:19.512Z,8.45
2022-11-06T23:12:29.342Z,8.39
2022-11-06T23:15:38.167Z,8.31
2022-11-06T23:18:46.545Z,8.34
2022-11-06T23:22:15.362Z,8.08
2022-11-06T23:25:24.121Z,8.20
2022-11-06T23:28:34.398Z,8.18
2022-11-06T23:31:43.347Z,8.20
2022-11-06T23:34:53.190Z,8.26
2022-11-06T23:38:02.255Z,8.28
2022-11-06T23:41:32.425Z,8.32
2022-11-06T23:44:59.771Z,8.29
2022-11-06T23:48:13.406Z,8.31
2022-11-06T23:51:23.382Z,8.25
2022-11-06T23:54:31.642Z,8.27
2022-11-06T23:57:40.786Z,8.29
